createdAt,value
2022-11-04T04:53:14.668Z,4.07
2022-11-04T04:56:18.994Z,3.35
2022-11-04T04:59:23.360Z,3.30
2022-11-04T05:02:27.674Z,3.10
2022-11-04T05:05:32.459Z,2.80
2022-11-04T05:08:36.744Z,3.88
2022-11-04T05:11:41.186Z,3.90
2022-11-04T05:14:45.775Z,3.05
2022-11-04T05:17:54.587Z,4.60
2022-11-04T05:20:58.992Z,3.60
2022-11-04T05:24:03.555Z,8.10
2022-11-04T05:27:07.780Z,3.00
2022-11-04T05:30:12.779Z,3.17
2022-11-04T05:33:17.130Z,3.40
2022-11-04T05:36:21.597Z,3.20
2022-11-04T05:39:26.037Z,4.93
2022-11-04T05:42:30.614Z,3.63
2022-11-04T05:45:34.917Z,3.38
2022-11-04T05:48:40.736Z,3.20
2022-11-04T05:51:45.537Z,2.83
2022-11-04T05:54:49.802Z,7.07
2022-11-04T05:57:54.892Z,2.67
2022-11-04T06:01:30.178Z,3.23
2022-11-04T06:04:35.145Z,5.50
2022-11-04T06:07:39.396Z,4.60
2022-11-04T06:10:44.982Z,3.63
2022-11-04T06:13:49.349Z,4.90
2022-11-04T06:16:53.913Z,4.03
2022-11-04T06:19:58.168Z,3.25
2022-11-04T06:23:02.604Z,3.47
2022-11-04T06:26:07.567Z,2.80
2022-11-04T06:29:12.424Z,4.10
2022-11-04T06:32:19.174Z,6.03
2022-11-04T06:35:23.800Z,3.85
2022-11-04T06:38:30.882Z,6.72
2022-11-04T06:41:35.421Z,5.35
2022-11-04T06:44:39.966Z,5.65
2022-11-04T06:47:44.500Z,4.00
2022-11-04T06:50:48.839Z,2.30
2022-11-04T06:53:53.637Z,2.50
2022-11-04T06:56:58.055Z,2.77
2022-11-04T07:00:02.701Z,3.00
2022-11-04T07:03:07.849Z,4.17
2022-11-04T07:06:13.370Z,5.07
2022-11-04T07:09:18.094Z,3.70
2022-11-04T07:12:24.448Z,4.95
2022-11-04T07:15:28.995Z,3.20
2022-11-04T07:18:33.315Z,2.78
2022-11-04T07:21:37.695Z,2.83
2022-11-04T07:24:42.187Z,4.32
2022-11-04T07:27:46.872Z,3.47
2022-11-04T07:30:51.137Z,5.45
2022-11-04T07:33:57.114Z,3.78
2022-11-04T07:37:02.060Z,4.38
2022-11-04T07:40:09.716Z,4.57
2022-11-04T07:43:14.499Z,4.05
2022-11-04T07:46:20.076Z,7.20
2022-11-04T07:49:24.833Z,4.88
2022-11-04T07:52:29.563Z,6.03
2022-11-04T07:55:36.772Z,5.47
2022-11-04T07:58:44.946Z,5.28
2022-11-04T08:01:49.956Z,4.33
2022-11-04T08:04:54.323Z,7.78
2022-11-04T08:08:00.106Z,9.65
2022-11-04T08:17:25.254Z,8.20
2022-11-04T08:20:29.983Z,9.30
2022-11-04T08:23:36.357Z,10.68
2022-11-04T08:26:40.841Z,24.65
2022-11-04T08:29:45.362Z,20.95
2022-11-04T08:32:49.816Z,11.35
2022-11-04T08:35:56.536Z,12.63
2022-11-04T08:39:07.382Z,14.98
2022-11-04T08:42:14.542Z,12.43
2022-11-04T08:45:19.092Z,9.38
2022-11-04T08:48:25.770Z,10.10
2022-11-04T08:51:31.960Z,18.27
2022-11-04T08:54:37.150Z,17.63
2022-11-04T08:57:41.941Z,19.57
2022-11-04T09:00:46.360Z,9.83
2022-11-04T09:03:51.665Z,19.95
2022-11-04T09:06:57.098Z,18.73
2022-11-04T09:10:02.909Z,13.88
2022-11-04T09:16:15.110Z,12.43
2022-11-04T09:19:19.676Z,14.00
2022-11-04T09:22:23.938Z,9.77
2022-11-04T09:25:28.710Z,12.38
2022-11-04T09:28:33.141Z,9.32
2022-11-04T09:31:38.643Z,8.95
2022-11-04T09:34:43.284Z,9.77
2022-11-04T09:37:47.968Z,15.98
2022-11-04T09:40:52.861Z,18.33
2022-11-04T09:44:14.200Z,13.17
2022-11-04T09:47:21.910Z,11.95
2022-11-04T09:50:32.234Z,9.00
2022-11-04T09:53:48.837Z,7.45
2022-11-04T09:56:57.431Z,8.98
2022-11-04T10:00:01.995Z,9.25
2022-11-04T10:03:16.269Z,7.72
2022-11-04T10:06:44.946Z,8.73
2022-11-04T10:10:02.239Z,9.02
2022-11-04T10:13:20.766Z,32.10
2022-11-04T10:16:32.446Z,20.13
2022-11-04T10:19:47.791Z,19.65
2022-11-04T10:22:59.674Z,20.40
2022-11-04T10:26:20.392Z,32.95
2022-11-04T10:29:33.020Z,58.75
2022-11-04T10:32:47.025Z,58.22
2022-11-04T10:36:07.271Z,52.17
2022-11-04T10:39:28.334Z,51.30
2022-11-04T10:42:34.544Z,31.60
2022-11-04T10:45:50.698Z,46.50
2022-11-04T10:49:06.841Z,91.07
2022-11-04T10:55:30.857Z,82.65
2022-11-04T10:58:46.169Z,107.70
2022-11-04T11:01:56.074Z,32.67
2022-11-04T11:05:17.180Z,49.58
2022-11-04T11:08:34.381Z,72.00
2022-11-04T11:11:41.028Z,38.67
2022-11-04T11:14:52.568Z,38.75
2022-11-04T11:18:18.605Z,50.70
2022-11-04T11:21:26.230Z,46.83
2022-11-04T11:24:35.602Z,57.17
2022-11-04T11:27:40.059Z,55.22
2022-11-04T11:30:48.010Z,52.17
2022-11-04T11:34:00.705Z,50.55
2022-11-04T11:37:06.463Z,58.25
2022-11-04T11:40:26.241Z,55.20
2022-11-04T11:43:33.732Z,41.92
2022-11-04T11:46:39.257Z,45.72
2022-11-04T11:49:43.759Z,48.47
2022-11-04T11:52:49.724Z,57.88
2022-11-04T11:56:16.037Z,53.53
2022-11-04T12:03:19.414Z,90.25
2022-11-04T12:06:29.235Z,50.70
2022-11-04T12:09:39.764Z,61.40
2022-11-04T12:12:47.594Z,60.53
2022-11-04T12:16:11.413Z,62.20
2022-11-04T12:19:27.056Z,58.92
2022-11-04T12:23:14.910Z,70.25
2022-11-04T12:26:39.068Z,43.55
2022-11-04T12:30:01.606Z,46.20
2022-11-04T12:33:28.101Z,56.15
2022-11-04T12:36:55.018Z,53.35
2022-11-04T12:40:05.258Z,46.47
2022-11-04T12:43:18.242Z,59.25
2022-11-04T12:46:34.348Z,52.00
2022-11-04T12:49:55.028Z,51.33
2022-11-04T12:54:28.154Z,53.03
2022-11-04T12:57:53.833Z,31.92
2022-11-04T13:01:16.424Z,73.57
2022-11-04T13:04:30.313Z,47.38
2022-11-04T13:07:54.281Z,93.60
2022-11-04T13:11:23.499Z,132.48
2022-11-04T13:14:43.037Z,59.75
2022-11-04T13:17:51.888Z,62.17
2022-11-04T13:21:07.415Z,62.05
2022-11-04T13:24:32.532Z,67.30
2022-11-04T13:27:41.141Z,37.95
2022-11-04T13:30:56.934Z,59.60
2022-11-04T13:34:23.201Z,69.20
2022-11-04T13:40:59.105Z,38.60
2022-11-04T13:44:14.780Z,39.10
2022-11-04T13:47:37.634Z,53.45
2022-11-04T13:50:42.570Z,49.63
2022-11-04T13:53:50.513Z,58.00
2022-11-04T13:57:17.281Z,54.33
2022-11-04T14:00:27.843Z,53.90
2022-11-04T14:03:38.408Z,58.53
2022-11-04T14:07:09.267Z,51.55
2022-11-04T14:10:46.444Z,49.05
2022-11-04T14:14:03.798Z,50.00
2022-11-04T14:17:36.157Z,50.13
2022-11-04T14:21:10.163Z,51.97
2022-11-04T14:24:16.575Z,52.08
2022-11-04T14:27:39.613Z,35.15
2022-11-04T14:30:54.775Z,45.28
2022-11-04T14:33:59.399Z,36.88
2022-11-04T14:37:17.024Z,51.90
2022-11-04T14:40:30.378Z,35.80
2022-11-04T14:43:36.844Z,26.58
2022-11-04T14:46:51.023Z,35.05
2022-11-04T14:50:01.176Z,68.18
2022-11-04T14:53:07.510Z,39.20
2022-11-04T14:56:24.192Z,73.93
2022-11-04T14:59:29.818Z,46.30
2022-11-04T15:02:36.418Z,42.45
2022-11-04T15:05:50.636Z,40.55
2022-11-04T15:08:56.779Z,49.90
2022-11-04T15:15:46.174Z,21.67
2022-11-04T15:18:52.885Z,32.50
2022-11-04T15:21:57.501Z,24.05
2022-11-04T15:25:06.693Z,22.67
2022-11-04T15:28:24.136Z,15.32
2022-11-04T15:31:32.773Z,23.23
2022-11-04T15:34:37.953Z,17.63
2022-11-04T15:37:44.792Z,24.48
2022-11-04T15:40:51.669Z,18.58
2022-11-04T15:43:56.303Z,16.80
2022-11-04T15:47:03.729Z,19.55
2022-11-04T15:50:26.158Z,26.80
2022-11-04T15:53:30.788Z,24.83
2022-11-04T15:56:43.619Z,19.43
2022-11-04T16:00:02.974Z,18.35
2022-11-04T16:03:21.398Z,13.93
2022-11-04T16:06:45.061Z,71.90
2022-11-04T16:09:56.956Z,14.93
2022-11-04T16:13:22.216Z,15.10
2022-11-04T16:16:28.970Z,17.33
2022-11-04T16:19:33.490Z,15.45
2022-11-04T16:22:44.038Z,19.27
2022-11-04T16:25:49.353Z,20.23
2022-11-04T16:28:59.085Z,19.27
2022-11-04T16:32:27.418Z,19.77
2022-11-04T16:35:32.680Z,20.45
2022-11-04T16:38:37.019Z,18.23
2022-11-04T16:41:42.617Z,18.33
2022-11-04T16:44:56.818Z,37.47
2022-11-04T16:48:01.543Z,18.73
2022-11-04T16:51:07.461Z,18.73
2022-11-04T16:54:13.215Z,19.27
2022-11-04T16:57:18.258Z,18.20
2022-11-04T17:00:25.619Z,16.77
2022-11-04T17:03:29.854Z,14.82
2022-11-04T17:09:40.614Z,16.23
2022-11-04T17:12:45.147Z,17.45
2022-11-04T17:15:49.590Z,18.48
2022-11-04T17:18:53.768Z,17.90
2022-11-04T17:21:59.644Z,18.70
2022-11-04T17:28:09.733Z,17.17
2022-11-04T17:31:20.477Z,16.42
2022-11-04T17:34:26.694Z,13.95
2022-11-04T17:37:31.077Z,14.07
2022-11-04T17:40:55.453Z,15.55
2022-11-04T17:44:02.964Z,16.40
2022-11-04T17:47:07.512Z,15.65
2022-11-04T17:50:11.726Z,16.63
2022-11-04T17:53:16.510Z,16.02
2022-11-04T17:56:23.352Z,13.48
2022-11-04T17:59:31.101Z,14.50
2022-11-04T18:02:38.631Z,17.08
2022-11-04T18:05:43.021Z,12.75
2022-11-04T18:08:47.739Z,13.07
2022-11-04T18:12:10.440Z,12.30
2022-11-04T18:15:17.965Z,11.80
2022-11-04T18:18:22.391Z,13.02
2022-11-04T18:21:27.577Z,15.02
2022-11-04T18:24:32.192Z,12.82
2022-11-04T18:27:36.922Z,14.80
2022-11-04T18:30:41.985Z,13.57
2022-11-04T18:33:47.351Z,12.93
2022-11-04T18:36:51.601Z,13.75
2022-11-04T18:39:56.096Z,12.32
2022-11-04T18:43:07.573Z,13.88
2022-11-04T18:46:15.712Z,13.05
2022-11-04T18:49:21.730Z,13.40
2022-11-04T18:52:28.816Z,13.90
2022-11-04T18:55:34.548Z,13.10
2022-11-04T19:01:46.612Z,12.55
2022-11-04T19:04:52.552Z,13.77
2022-11-04T19:11:10.407Z,13.15
2022-11-04T19:14:20.406Z,14.95
2022-11-04T19:17:24.630Z,15.45
2022-11-04T19:20:29.247Z,19.48
2022-11-04T19:23:35.141Z,16.08
2022-11-04T19:29:43.423Z,16.05
2022-11-04T19:32:47.579Z,16.45
2022-11-04T19:35:54.082Z,13.70
2022-11-04T19:38:58.568Z,16.02
2022-11-04T19:42:22.080Z,14.63
2022-11-04T19:45:27.141Z,13.75
2022-11-04T19:48:32.490Z,13.20
2022-11-04T19:51:37.479Z,15.48
2022-11-04T19:54:41.744Z,16.50
2022-11-04T19:57:46.291Z,17.88
2022-11-04T20:00:51.867Z,16.95
2022-11-04T20:07:02.043Z,18.95
2022-11-04T20:10:07.022Z,20.02
2022-11-04T20:13:39.641Z,18.33
2022-11-04T20:16:44.255Z,18.05
2022-11-04T20:19:52.644Z,14.55
2022-11-04T20:22:56.969Z,18.15
2022-11-04T20:26:31.663Z,17.75
2022-11-04T20:29:35.862Z,18.15
2022-11-04T20:32:40.438Z,16.38
2022-11-04T20:35:44.655Z,16.10
2022-11-04T20:38:49.379Z,17.10
2022-11-04T20:41:54.687Z,14.80
2022-11-04T20:44:59.256Z,14.23
2022-11-04T20:48:03.458Z,20.15
2022-11-04T20:51:14.664Z,16.13
2022-11-04T20:54:21.766Z,20.10
2022-11-04T20:57:25.912Z,18.00
2022-11-04T21:00:32.126Z,15.88
2022-11-04T21:03:36.743Z,17.15
2022-11-04T21:06:41.938Z,16.70
2022-11-04T21:09:46.475Z,14.70
2022-11-04T21:12:53.187Z,14.30
2022-11-04T21:15:59.238Z,15.43
2022-11-04T21:19:04.666Z,15.02
2022-11-04T21:22:08.961Z,26.13
2022-11-04T21:25:13.361Z,21.48
2022-11-04T21:28:17.700Z,17.73
2022-11-04T21:31:22.737Z,15.80
2022-11-04T21:34:28.322Z,19.38
2022-11-04T21:37:36.085Z,17.27
2022-11-04T21:40:41.930Z,17.30
2022-11-04T21:43:46.158Z,15.77
2022-11-04T21:46:52.020Z,13.73
2022-11-04T21:49:57.088Z,14.38
2022-11-04T21:53:01.375Z,19.60
2022-11-04T21:56:13.071Z,27.42
2022-11-04T21:59:18.667Z,20.73
2022-11-04T22:02:23.392Z,30.75
2022-11-04T22:05:27.756Z,35.20
2022-11-04T22:08:32.841Z,14.30
2022-11-04T22:11:39.872Z,13.60
2022-11-04T22:14:44.573Z,13.15
2022-11-04T22:17:48.870Z,14.45
2022-11-04T22:20:53.918Z,13.88
2022-11-04T22:23:59.084Z,18.77
2022-11-04T22:27:03.912Z,16.17
2022-11-04T22:30:09.364Z,20.03
2022-11-04T22:33:13.741Z,25.90
2022-11-04T22:36:18.177Z,21.35
2022-11-04T22:39:22.913Z,89.57
2022-11-04T22:42:27.257Z,36.20
2022-11-04T22:45:31.551Z,75.03
2022-11-04T22:48:37.327Z,12.73
2022-11-04T22:51:41.644Z,12.65
2022-11-04T22:54:46.083Z,11.98
2022-11-04T22:57:50.585Z,12.68
2022-11-04T23:00:57.488Z,10.68
2022-11-04T23:04:02.068Z,10.38
2022-11-04T23:07:06.571Z,11.38
2022-11-04T23:10:29.588Z,10.23
2022-11-04T23:13:52.805Z,11.68
2022-11-04T23:17:15.687Z,12.15
2022-11-04T23:20:21.943Z,11.02
2022-11-04T23:23:45.352Z,11.40
2022-11-04T23:26:49.815Z,12.18
2022-11-04T23:30:19.982Z,13.40
2022-11-04T23:33:44.228Z,10.82
2022-11-04T23:37:07.539Z,10.75
2022-11-04T23:40:12.605Z,11.20
2022-11-04T23:43:16.892Z,13.13
2022-11-04T23:46:43.151Z,11.25
2022-11-04T23:50:06.822Z,13.85
2022-11-04T23:53:32.048Z,10.40
2022-11-04T23:56:54.993Z,11.82
